createdAt,value
2017-09-01T00:00:04.435Z,6.20
2017-09-01T00:02:32.772Z,6.10
2017-09-01T00:05:01.062Z,7.17
2017-09-01T00:07:29.688Z,6.00
2017-09-01T00:09:57.959Z,8.23
2017-09-01T00:12:26.257Z,5.60
2017-09-01T00:14:54.528Z,6.60
2017-09-01T00:17:22.866Z,5.60
2017-09-01T00:19:51.110Z,10.57
2017-09-01T00:22:19.526Z,7.33
2017-09-01T00:24:47.797Z,6.90
2017-09-01T00:27:16.022Z,6.63
2017-09-01T00:29:44.353Z,6.67
2017-09-01T00:32:12.691Z,6.60
2017-09-01T00:34:40.955Z,6.63
2017-09-01T00:37:09.242Z,7.23
2017-09-01T00:39:37.487Z,6.37
2017-09-01T00:42:05.787Z,8.27
2017-09-01T00:44:34.055Z,8.20
2017-09-01T00:47:02.389Z,6.20
2017-09-01T00:49:34.765Z,6.60
2017-09-01T00:52:03.124Z,9.97
2017-09-01T00:54:31.361Z,8.27
2017-09-01T00:56:59.635Z,9.90
2017-09-01T00:59:27.920Z,8.13
2017-09-01T01:01:56.180Z,6.80
2017-09-01T01:04:24.464Z,5.17
2017-09-01T01:06:52.704Z,6.33
2017-09-01T01:09:20.991Z,11.23
2017-09-01T01:11:49.281Z,7.33
2017-09-01T01:14:17.559Z,7.63
2017-09-01T01:16:45.847Z,6.43
2017-09-01T01:19:14.245Z,10.27
2017-09-01T01:21:42.557Z,8.23
2017-09-01T01:24:11.623Z,6.90
2017-09-01T01:26:39.913Z,6.13
2017-09-01T01:29:08.207Z,9.53
2017-09-01T01:31:36.468Z,14.00
2017-09-01T01:34:04.759Z,5.90
2017-09-01T01:36:33.571Z,7.00
2017-09-01T01:39:01.899Z,8.87
2017-09-01T01:41:30.164Z,6.47
2017-09-01T01:43:58.478Z,8.43
2017-09-01T01:46:26.913Z,6.53
2017-09-01T01:48:55.338Z,6.47
2017-09-01T01:51:23.646Z,7.10
2017-09-01T01:53:51.936Z,7.17
2017-09-01T01:56:20.280Z,8.10
2017-09-01T01:58:48.656Z,11.63
2017-09-01T02:01:16.951Z,9.87
2017-09-01T02:03:45.220Z,9.63
2017-09-01T02:06:13.507Z,7.57
2017-09-01T02:08:41.799Z,9.83
2017-09-01T02:11:10.548Z,7.57
2017-09-01T02:13:38.798Z,7.90
2017-09-01T02:16:07.089Z,9.60
2017-09-01T02:18:35.353Z,8.67
2017-09-01T02:21:03.689Z,10.27
2017-09-01T02:23:31.968Z,8.53
2017-09-01T02:26:00.236Z,11.00
2017-09-01T02:28:28.542Z,10.90
2017-09-01T02:30:56.803Z,7.33
2017-09-01T02:33:25.066Z,14.67
2017-09-01T02:35:53.325Z,7.60
2017-09-01T02:38:21.609Z,7.93
2017-09-01T02:40:49.880Z,7.20
2017-09-01T02:43:18.175Z,9.10
2017-09-01T02:45:46.489Z,9.73
2017-09-01T02:48:14.847Z,8.80
2017-09-01T02:50:43.166Z,7.23
2017-09-01T02:53:11.503Z,9.53
2017-09-01T02:55:39.790Z,9.37
2017-09-01T02:58:08.104Z,6.97
2017-09-01T03:00:37.183Z,8.40
2017-09-01T03:03:05.485Z,9.70
2017-09-01T03:05:33.757Z,9.30
2017-09-01T03:08:02.032Z,7.57
2017-09-01T03:10:30.408Z,12.00
2017-09-01T03:12:58.798Z,7.80
2017-09-01T03:15:27.120Z,8.13
2017-09-01T03:17:55.395Z,7.93
2017-09-01T03:20:23.676Z,10.43
2017-09-01T03:22:51.956Z,11.13
2017-09-01T03:25:20.234Z,11.83
2017-09-01T03:27:48.560Z,8.23
2017-09-01T03:30:16.844Z,8.70
2017-09-01T03:32:45.164Z,12.80
2017-09-01T03:35:13.419Z,9.53
2017-09-01T03:37:41.702Z,8.50
2017-09-01T03:40:09.969Z,10.50
2017-09-01T03:42:38.270Z,7.63
2017-09-01T03:48:06.354Z,11.63
2017-09-01T03:50:34.720Z,10.03
2017-09-01T03:53:02.988Z,9.43
2017-09-01T03:55:31.290Z,7.93
2017-09-01T03:57:59.800Z,11.97
2017-09-01T04:00:28.072Z,14.63
2017-09-01T04:02:56.543Z,11.43
2017-09-01T04:05:24.845Z,11.23
2017-09-01T04:07:53.125Z,10.27
2017-09-01T04:10:21.422Z,9.43
2017-09-01T04:12:49.683Z,13.63
2017-09-01T04:15:18.724Z,10.37
2017-09-01T04:17:46.987Z,10.63
2017-09-01T04:20:15.247Z,9.93
2017-09-01T04:22:43.527Z,12.70
2017-09-01T04:25:11.788Z,9.43
2017-09-01T04:27:40.120Z,10.40
2017-09-01T04:30:09.851Z,10.53
2017-09-01T04:32:38.396Z,13.87
2017-09-01T04:35:06.955Z,13.83
2017-09-01T04:37:35.212Z,11.50
2017-09-01T04:40:03.492Z,13.13
2017-09-01T04:42:31.815Z,22.43
2017-09-01T04:45:00.084Z,10.37
2017-09-01T04:47:28.352Z,11.07
2017-09-01T04:49:56.623Z,9.93
2017-09-01T04:52:25.047Z,12.40
2017-09-01T04:54:53.347Z,13.03
2017-09-01T04:57:21.591Z,11.83
2017-09-01T04:59:50.008Z,10.43
2017-09-01T05:02:18.441Z,12.40
2017-09-01T05:04:46.719Z,11.17
2017-09-01T05:07:14.975Z,11.63
2017-09-01T05:09:43.263Z,17.10
2017-09-01T05:12:11.533Z,9.40
2017-09-01T05:14:39.794Z,19.90
2017-09-01T05:17:08.042Z,13.60
2017-09-01T05:19:37.126Z,12.03
2017-09-01T05:22:06.078Z,19.73
2017-09-01T05:24:35.275Z,17.43
2017-09-01T05:27:03.571Z,12.43
2017-09-01T05:29:31.847Z,13.07
2017-09-01T05:32:00.109Z,18.90
2017-09-01T05:34:28.412Z,15.33
2017-09-01T05:36:56.680Z,16.40
2017-09-01T05:39:25.145Z,14.27
2017-09-01T05:41:53.403Z,10.87
2017-09-01T05:44:21.667Z,12.77
2017-09-01T05:46:49.934Z,13.37
2017-09-01T05:49:18.211Z,18.10
2017-09-01T05:51:46.485Z,13.23
2017-09-01T05:54:14.779Z,12.57
2017-09-01T05:56:43.026Z,14.73
2017-09-01T05:59:11.447Z,18.40
2017-09-01T06:01:39.712Z,17.23
2017-09-01T06:04:07.967Z,16.77
2017-09-01T06:06:36.240Z,17.67
2017-09-01T06:09:04.487Z,12.60
2017-09-01T06:11:32.760Z,14.00
2017-09-01T06:14:01.024Z,14.23
2017-09-01T06:16:29.367Z,21.70
2017-09-01T06:18:57.755Z,16.47
2017-09-01T06:21:26.004Z,13.73
2017-09-01T06:23:54.270Z,16.60
2017-09-01T06:26:22.589Z,14.00
2017-09-01T06:28:50.862Z,15.37
2017-09-01T06:31:19.241Z,14.50
2017-09-01T06:33:47.619Z,14.20
2017-09-01T06:36:16.100Z,15.90
2017-09-01T06:38:44.393Z,15.03
2017-09-01T06:41:12.635Z,13.77
2017-09-01T06:43:40.919Z,16.00
2017-09-01T06:46:09.329Z,15.27
2017-09-01T06:48:37.603Z,15.43
2017-09-01T06:51:10.358Z,19.97
2017-09-01T06:53:38.642Z,17.03
2017-09-01T06:56:06.932Z,18.10
2017-09-01T06:58:36.073Z,16.87
2017-09-01T07:01:04.353Z,20.00
2017-09-01T07:03:32.604Z,18.03
2017-09-01T07:06:01.061Z,21.83
2017-09-01T07:08:29.381Z,17.87
2017-09-01T07:10:57.623Z,17.17
2017-09-01T07:13:25.929Z,21.97
2017-09-01T07:15:54.215Z,17.07
2017-09-01T07:18:22.619Z,19.23
2017-09-01T07:20:50.855Z,18.57
2017-09-01T07:23:19.100Z,18.90
2017-09-01T07:25:47.392Z,23.53
2017-09-01T07:28:15.679Z,25.90
2017-09-01T07:30:43.967Z,16.43
2017-09-01T07:33:12.259Z,18.43
2017-09-01T07:35:40.583Z,18.27
2017-09-01T07:38:08.868Z,20.00
2017-09-01T07:40:37.123Z,17.53
2017-09-01T07:43:05.454Z,22.40
2017-09-01T07:45:33.734Z,21.47
2017-09-01T07:48:02.732Z,24.83
2017-09-01T07:50:31.022Z,20.40
2017-09-01T07:52:59.296Z,28.03
2017-09-01T07:55:27.581Z,21.50
2017-09-01T07:57:56.020Z,23.23
2017-09-01T08:00:24.358Z,22.03
2017-09-01T08:02:52.634Z,21.57
2017-09-01T08:05:20.962Z,20.57
2017-09-01T08:07:49.347Z,23.23
2017-09-01T08:10:17.691Z,21.70
2017-09-01T08:12:45.995Z,23.60
2017-09-01T08:15:14.273Z,21.60
2017-09-01T08:17:42.551Z,21.07
2017-09-01T08:20:10.864Z,20.57
2017-09-01T08:22:39.256Z,17.63
2017-09-01T08:25:07.504Z,18.13
2017-09-01T08:27:35.815Z,18.23
2017-09-01T08:30:04.084Z,21.13
2017-09-01T08:32:32.364Z,22.07
2017-09-01T08:35:00.656Z,19.03
2017-09-01T08:37:29.679Z,17.80
2017-09-01T08:39:58.150Z,19.20
2017-09-01T08:42:26.961Z,19.53
2017-09-01T08:45:04.861Z,17.83
2017-09-01T08:47:33.163Z,22.00
2017-09-01T08:50:01.643Z,19.40
2017-09-01T08:52:29.876Z,17.43
2017-09-01T08:54:58.153Z,20.90
2017-09-01T08:57:26.433Z,15.50
2017-09-01T08:59:54.767Z,17.53
2017-09-01T09:02:23.792Z,15.77
2017-09-01T09:04:52.052Z,20.53
2017-09-01T09:07:20.358Z,16.30
2017-09-01T09:09:48.646Z,17.63
2017-09-01T09:12:16.931Z,18.03
2017-09-01T09:14:45.235Z,17.17
2017-09-01T09:20:14.058Z,16.63
2017-09-01T09:22:42.330Z,20.83
2017-09-01T09:25:10.655Z,17.87
2017-09-01T09:27:38.948Z,17.47
2017-09-01T09:30:07.240Z,18.37
2017-09-01T09:32:35.504Z,23.37
2017-09-01T09:35:03.876Z,21.50
2017-09-01T09:37:32.240Z,18.43
2017-09-01T09:40:00.513Z,19.20
2017-09-01T09:42:28.866Z,17.70
2017-09-01T09:44:57.106Z,19.20
2017-09-01T09:47:25.398Z,16.47
2017-09-01T09:49:53.686Z,18.93
2017-09-01T09:52:22.160Z,16.30
2017-09-01T09:54:50.539Z,16.97
2017-09-01T09:57:18.814Z,17.13
2017-09-01T09:59:47.095Z,17.23
2017-09-01T10:02:15.455Z,18.80
2017-09-01T10:04:43.716Z,19.03
2017-09-01T10:07:12.031Z,23.43
2017-09-01T10:09:40.345Z,18.33
2017-09-01T10:12:08.575Z,20.17
2017-09-01T10:14:36.922Z,19.07
2017-09-01T10:17:05.262Z,17.73
2017-09-01T10:19:33.549Z,18.47
2017-09-01T10:22:02.007Z,16.87
2017-09-01T10:24:30.293Z,15.80
2017-09-01T10:26:58.566Z,15.67
2017-09-01T10:29:26.877Z,17.60
2017-09-01T10:31:55.198Z,23.73
2017-09-01T10:34:23.577Z,15.80
2017-09-01T10:36:51.980Z,15.40
2017-09-01T10:39:20.517Z,15.10
2017-09-01T10:41:49.995Z,18.50
2017-09-01T10:44:18.740Z,14.87
2017-09-01T10:46:47.733Z,14.50
2017-09-01T10:49:24.253Z,14.53
2017-09-01T10:52:05.093Z,17.20
2017-09-01T10:54:45.716Z,14.70
2017-09-01T10:57:26.102Z,13.33
2017-09-01T10:59:54.616Z,13.10
2017-09-01T11:02:23.342Z,15.90
2017-09-01T11:04:51.834Z,12.60
2017-09-01T11:07:20.668Z,13.73
2017-09-01T11:09:49.684Z,9.57
2017-09-01T11:12:18.147Z,11.63
2017-09-01T11:14:47.179Z,11.43
2017-09-01T11:17:15.699Z,13.40
2017-09-01T11:19:49.624Z,17.00
2017-09-01T11:22:23.692Z,13.53
2017-09-01T11:24:52.327Z,12.30
2017-09-01T11:27:20.817Z,14.17
2017-09-01T11:29:49.505Z,12.03
2017-09-01T11:32:17.977Z,11.30
2017-09-01T11:34:46.870Z,12.93
2017-09-01T11:37:15.346Z,15.53
2017-09-01T11:39:44.012Z,9.70
2017-09-01T11:42:12.490Z,9.57
2017-09-01T11:44:40.992Z,11.10
2017-09-01T11:47:09.424Z,8.60
2017-09-01T11:49:38.253Z,7.50
2017-09-01T11:52:07.458Z,6.03
2017-09-01T11:54:36.290Z,5.97
2017-09-01T11:57:05.025Z,5.83
2017-09-01T11:59:33.521Z,5.93
2017-09-01T12:02:02.192Z,8.00
2017-09-01T12:04:30.903Z,7.27
2017-09-01T12:06:59.402Z,9.40
2017-09-01T12:09:27.746Z,8.17
2017-09-01T12:11:56.222Z,5.80
2017-09-01T12:14:25.090Z,6.00
2017-09-01T12:16:53.513Z,8.13
2017-09-01T12:19:22.176Z,6.40
2017-09-01T12:21:50.562Z,11.40
2017-09-01T12:24:19.014Z,10.63
2017-09-01T12:26:47.873Z,14.03
2017-09-01T12:29:16.240Z,9.67
2017-09-01T12:31:45.108Z,9.63
2017-09-01T12:34:13.677Z,13.40
2017-09-01T12:36:42.163Z,12.87
2017-09-01T12:39:10.652Z,11.67
2017-09-01T12:41:39.294Z,13.70
2017-09-01T12:44:07.636Z,8.73
2017-09-01T12:46:36.178Z,7.80
2017-09-01T12:49:04.677Z,9.80
2017-09-01T12:51:33.817Z,8.97
2017-09-01T12:54:02.280Z,10.40
2017-09-01T12:56:30.894Z,11.00
2017-09-01T12:58:59.561Z,10.97
2017-09-01T13:01:28.385Z,11.70
2017-09-01T13:03:56.950Z,12.43
2017-09-01T13:06:25.530Z,13.40
2017-09-01T13:08:54.132Z,12.93
2017-09-01T13:11:24.264Z,11.00
2017-09-01T13:13:52.635Z,12.27
2017-09-01T13:16:21.006Z,16.60
2017-09-01T13:18:51.717Z,13.67
2017-09-01T13:21:20.079Z,12.50
2017-09-01T13:23:49.392Z,12.27
2017-09-01T13:26:17.783Z,11.67
2017-09-01T13:28:46.532Z,12.77
2017-09-01T13:31:15.106Z,13.37
2017-09-01T13:33:43.738Z,14.90
2017-09-01T13:36:12.352Z,14.00
2017-09-01T13:38:41.604Z,15.07
2017-09-01T13:41:09.884Z,13.93
2017-09-01T13:43:38.179Z,14.97
2017-09-01T13:46:06.616Z,14.37
2017-09-01T13:48:35.688Z,18.90
2017-09-01T13:51:03.992Z,15.83
2017-09-01T13:53:32.353Z,14.43
2017-09-01T13:56:00.640Z,12.47
2017-09-01T13:58:29.684Z,14.10
2017-09-01T14:00:57.991Z,12.77
2017-09-01T14:03:26.416Z,13.90
2017-09-01T14:05:54.760Z,14.53
2017-09-01T14:08:23.027Z,14.27
2017-09-01T14:10:51.317Z,13.47
2017-09-01T14:13:19.682Z,15.00
2017-09-01T14:15:47.981Z,14.07
2017-09-01T14:18:17.085Z,14.63
2017-09-01T14:20:45.363Z,13.50
2017-09-01T14:23:13.800Z,13.73
2017-09-01T14:25:42.136Z,14.17
2017-09-01T14:28:10.394Z,16.20
2017-09-01T14:30:38.696Z,12.70
2017-09-01T14:33:07.008Z,12.43
2017-09-01T14:35:35.282Z,13.10
2017-09-01T14:38:03.603Z,11.90
2017-09-01T14:40:31.876Z,12.23
2017-09-01T14:43:00.184Z,11.43
2017-09-01T14:45:28.550Z,11.80
2017-09-01T14:47:56.854Z,12.13
2017-09-01T14:50:25.134Z,12.20
2017-09-01T14:52:53.427Z,11.57
2017-09-01T14:55:21.793Z,11.83
2017-09-01T14:57:50.095Z,11.07
2017-09-01T15:00:18.444Z,11.70
2017-09-01T15:02:46.766Z,15.13
2017-09-01T15:05:15.053Z,9.10
2017-09-01T15:07:43.463Z,9.67
2017-09-01T15:10:11.715Z,11.10
2017-09-01T15:12:40.266Z,10.30
2017-09-01T15:15:09.328Z,9.37
2017-09-01T15:17:37.647Z,9.30
2017-09-01T15:20:07.007Z,7.97
2017-09-01T15:22:39.706Z,8.30
2017-09-01T15:25:08.661Z,8.27
2017-09-01T15:27:37.090Z,6.40
2017-09-01T15:30:05.359Z,8.00
2017-09-01T15:32:33.901Z,7.93
2017-09-01T15:35:02.395Z,5.57
2017-09-01T15:37:31.798Z,5.40
2017-09-01T15:40:01.624Z,4.90
2017-09-01T15:42:29.968Z,5.07
2017-09-01T15:44:58.300Z,4.93
2017-09-01T15:47:27.394Z,5.00
2017-09-01T15:49:55.807Z,4.53
2017-09-01T15:52:24.381Z,4.13
2017-09-01T15:54:52.694Z,4.50
2017-09-01T15:57:21.014Z,4.83
2017-09-01T15:59:49.334Z,5.37
2017-09-01T16:02:17.743Z,5.10
2017-09-01T16:04:46.036Z,4.23
2017-09-01T16:07:14.644Z,5.10
2017-09-01T16:09:42.968Z,4.50
2017-09-01T16:12:11.293Z,5.63
2017-09-01T16:14:47.624Z,4.30
2017-09-01T16:17:15.915Z,5.17
2017-09-01T16:19:44.245Z,4.53
2017-09-01T16:22:12.562Z,5.63
2017-09-01T16:24:40.899Z,5.47
2017-09-01T16:27:09.189Z,6.63
2017-09-01T16:29:37.494Z,5.90
2017-09-01T16:32:05.899Z,7.00
2017-09-01T16:34:34.206Z,7.20
2017-09-01T16:37:02.514Z,8.47
2017-09-01T16:39:30.848Z,6.07
2017-09-01T16:41:59.188Z,5.80
2017-09-01T16:44:27.541Z,6.17
2017-09-01T16:46:55.860Z,5.40
2017-09-01T16:49:24.291Z,5.70
2017-09-01T16:51:52.734Z,5.63
2017-09-01T16:54:21.022Z,8.70
2017-09-01T16:56:49.319Z,5.13
2017-09-01T16:59:17.676Z,5.50
2017-09-01T17:01:46.693Z,5.17
2017-09-01T17:04:15.134Z,5.13
2017-09-01T17:06:44.441Z,5.17
2017-09-01T17:09:12.783Z,4.63
2017-09-01T17:11:41.287Z,5.80
2017-09-01T17:14:09.646Z,6.60
2017-09-01T17:16:38.001Z,5.47
2017-09-01T17:19:06.266Z,6.53
2017-09-01T17:21:34.644Z,5.20
2017-09-01T17:24:03.020Z,6.07
2017-09-01T17:26:33.275Z,8.43
2017-09-01T17:29:01.954Z,11.60
2017-09-01T17:31:30.332Z,13.67
2017-09-01T17:33:58.645Z,14.23
2017-09-01T17:36:26.962Z,15.90
2017-09-01T17:38:55.275Z,13.87
2017-09-01T17:41:23.646Z,14.17
2017-09-01T17:43:51.970Z,17.23
2017-09-01T17:46:20.635Z,15.27
2017-09-01T17:48:49.804Z,15.97
2017-09-01T17:51:18.102Z,15.50
2017-09-01T17:53:46.444Z,17.00
2017-09-01T17:56:14.908Z,16.53
2017-09-01T17:58:43.203Z,14.93
2017-09-01T18:01:11.597Z,14.60
2017-09-01T18:03:40.015Z,14.43
2017-09-01T18:06:08.310Z,14.73
2017-09-01T18:08:37.352Z,13.43
2017-09-01T18:11:06.416Z,14.30
2017-09-01T18:13:34.828Z,13.90
2017-09-01T18:16:03.140Z,14.33
2017-09-01T18:18:31.449Z,14.03
2017-09-01T18:20:59.727Z,12.80
2017-09-01T18:23:28.015Z,13.10
2017-09-01T18:25:56.415Z,14.23
2017-09-01T18:28:24.826Z,14.40
2017-09-01T18:30:53.201Z,14.03
2017-09-01T18:33:21.473Z,16.93
2017-09-01T18:35:49.757Z,12.63
2017-09-01T18:38:18.123Z,12.60
2017-09-01T18:40:46.490Z,12.00
2017-09-01T18:43:14.789Z,14.20
2017-09-01T18:45:43.067Z,14.03
2017-09-01T18:48:11.380Z,15.23
2017-09-01T18:50:39.660Z,12.63
2017-09-01T18:53:07.996Z,13.37
2017-09-01T18:55:36.338Z,13.53
2017-09-01T18:58:04.664Z,13.27
2017-09-01T19:00:33.029Z,13.03
2017-09-01T19:03:01.699Z,13.63
2017-09-01T19:05:30.009Z,15.97
2017-09-01T19:07:58.454Z,13.67
2017-09-01T19:10:27.773Z,14.67
2017-09-01T19:12:56.196Z,14.17
2017-09-01T19:15:24.527Z,13.50
2017-09-01T19:17:53.019Z,15.53
2017-09-01T19:20:21.343Z,14.60
2017-09-01T19:22:49.654Z,15.77
2017-09-01T19:25:17.956Z,23.00
2017-09-01T19:27:46.334Z,20.27
2017-09-01T19:30:14.668Z,17.83
2017-09-01T19:32:43.026Z,16.80
2017-09-01T19:35:11.353Z,15.77
2017-09-01T19:37:39.910Z,16.90
2017-09-01T19:40:08.829Z,16.67
2017-09-01T19:42:38.557Z,15.23
2017-09-01T19:45:08.171Z,16.63
2017-09-01T19:47:36.873Z,16.40
2017-09-01T19:50:05.356Z,18.63
2017-09-01T19:52:33.865Z,20.67
2017-09-01T19:55:02.577Z,22.93
2017-09-01T19:57:31.099Z,18.43
2017-09-01T19:59:59.779Z,15.53
2017-09-01T20:02:28.600Z,17.77
2017-09-01T20:04:57.574Z,18.10
2017-09-01T20:07:26.208Z,18.40
2017-09-01T20:09:54.763Z,19.57
2017-09-01T20:12:23.205Z,20.63
2017-09-01T20:14:51.747Z,20.00
2017-09-01T20:17:20.210Z,20.00
2017-09-01T20:19:48.822Z,19.77
2017-09-01T20:22:17.301Z,18.07
2017-09-01T20:24:45.971Z,17.50
2017-09-01T20:27:14.341Z,20.77
2017-09-01T20:29:42.841Z,18.57
2017-09-01T20:32:11.152Z,22.13
2017-09-01T20:34:40.238Z,21.27
2017-09-01T20:37:08.635Z,19.73
2017-09-01T20:39:37.041Z,20.67
2017-09-01T20:42:05.369Z,18.00
2017-09-01T20:44:33.851Z,18.03
2017-09-01T20:47:02.150Z,17.70
2017-09-01T20:49:30.434Z,19.37
2017-09-01T20:51:58.803Z,17.53
2017-09-01T20:54:27.151Z,16.53
2017-09-01T20:56:55.449Z,16.43
2017-09-01T20:59:23.825Z,21.20
2017-09-01T21:01:52.272Z,20.27
2017-09-01T21:04:20.702Z,22.10
2017-09-01T21:06:52.871Z,20.80
2017-09-01T21:09:21.228Z,19.60
2017-09-01T21:14:24.220Z,20.70
2017-09-01T21:16:52.566Z,21.00
2017-09-01T21:19:20.926Z,22.73
2017-09-01T21:21:49.309Z,24.07
2017-09-01T21:24:17.621Z,24.83
2017-09-01T21:26:45.953Z,23.20
2017-09-01T21:29:14.359Z,20.93
2017-09-01T21:31:46.003Z,23.70
2017-09-01T21:34:14.422Z,22.83
2017-09-01T21:36:42.880Z,20.43
2017-09-01T21:39:11.216Z,19.70
2017-09-01T21:41:39.526Z,19.13
2017-09-01T21:44:07.944Z,19.23
2017-09-01T21:46:36.305Z,19.37
2017-09-01T21:49:04.839Z,18.43
2017-09-01T21:51:34.472Z,17.10
2017-09-01T21:54:02.922Z,19.60
2017-09-01T21:56:31.299Z,18.03
2017-09-01T21:58:59.781Z,18.30
2017-09-01T22:01:33.048Z,18.73
2017-09-01T22:04:01.444Z,21.17
2017-09-01T22:06:29.848Z,18.27
2017-09-01T22:08:58.199Z,20.20
2017-09-01T22:11:26.554Z,19.83
2017-09-01T22:16:56.227Z,18.37
2017-09-01T22:19:25.826Z,18.50
2017-09-01T22:21:54.120Z,22.00
2017-09-01T22:24:23.178Z,20.47
2017-09-01T22:26:51.788Z,21.70
2017-09-01T22:29:20.182Z,20.50
2017-09-01T22:31:48.529Z,17.90
2017-09-01T22:34:17.609Z,19.83
2017-09-01T22:36:46.135Z,21.17
2017-09-01T22:39:14.698Z,23.40
2017-09-01T22:41:43.086Z,23.67
2017-09-01T22:44:11.416Z,24.13
2017-09-01T22:46:39.686Z,23.60
2017-09-01T22:49:08.039Z,22.70
2017-09-01T22:51:36.305Z,25.03
2017-09-01T22:54:04.575Z,24.10
2017-09-01T22:56:32.889Z,22.70
2017-09-01T22:59:01.280Z,23.47
2017-09-01T23:01:29.608Z,22.50
2017-09-01T23:03:57.971Z,22.53
2017-09-01T23:06:26.288Z,26.43
2017-09-01T23:08:54.629Z,21.43
2017-09-01T23:11:22.862Z,20.63
2017-09-01T23:13:51.142Z,22.23
2017-09-01T23:16:19.414Z,24.80
2017-09-01T23:18:47.898Z,23.63
2017-09-01T23:21:16.229Z,22.83
2017-09-01T23:23:44.509Z,24.40
2017-09-01T23:26:12.812Z,23.30
2017-09-01T23:28:41.096Z,22.20
2017-09-01T23:31:09.364Z,21.97
2017-09-01T23:33:37.616Z,22.27
2017-09-01T23:36:05.920Z,22.63
2017-09-01T23:38:34.192Z,21.93
2017-09-01T23:41:02.507Z,21.43
2017-09-01T23:43:30.811Z,20.20
2017-09-01T23:45:59.166Z,20.17
2017-09-01T23:48:27.642Z,22.23
2017-09-01T23:50:56.085Z,21.83
2017-09-01T23:53:26.274Z,23.00
2017-09-01T23:55:55.874Z,27.67
2017-09-01T23:58:24.108Z,31.47
